Flight Track Log - Related Links

Times and Time Zones

All times are in EDT time to prevent confusion due to time zone crossing. See the EJA898 flight status page for this flight to view local times or setup timezone preferences in your user account.

Time Position Orientation Groundspeed Altitude Reporting Facility
EDT Latitude Longitude Course Direction KTS MPH feet Rate Location/Type
Mon 06:45:20 AM 40.9000 -74.0500 157° South 181 208 2,100  Level New York TRACON
Mon 06:46:20 AM 40.8833 -74.1167 252° West 252 290 5,000 2,200 Climbing New York TRACON
Mon 06:47:20 AM 40.8167 -74.1500 201° Southwest 273 314 6,500 1,500 Climbing New York TRACON
Mon 06:48:20 AM 40.7333 -74.1833 197° South 278 320 8,000 2,050 Climbing New York TRACON
Mon 06:49:20 AM 40.6667 -74.2167 201° Southwest 280 322 10,600 2,550 Climbing New York TRACON
Mon 06:50:00 AM 40.4241 -74.2096 157° South  Level FlightAware Approximate
Mon 06:50:20 AM 40.5833 -74.2667 205° Southwest 330 380 13,100  Level New York TRACON
Mon 06:51:20 AM 40.4833 -74.2500 173° South 367 422 15,900 1,628 Climbing New York TRACON
Mon 06:53:28 AM 40.2814 -74.2397 178° South 383 441 18,200 1,752 Climbing New York Center
Mon 06:55:54 AM 40.0600 -74.4258 213° Southwest 373 429 23,900 1,806 Climbing Washington Center
Mon 06:56:54 AM 39.9692 -74.5086 215° Southwest 387 445 24,400 1,400 Climbing Washington Center
Mon 06:57:54 AM 39.8803 -74.5883 215° Southwest 395 455 26,700 2,600 Climbing Washington Center
Mon 06:58:54 AM 39.7975 -74.6653 216° Southwest 387 445 29,600 2,550 Climbing Washington Center
Mon 06:59:54 AM 39.7147 -74.7392 214° Southwest 372 428 31,800 2,000 Climbing Washington Center
Mon 07:00:54 AM 39.6378 -74.7858 205° Southwest 361 415 33,600 1,900 Climbing Washington Center
Mon 07:01:54 AM 39.5569 -74.8325 204° Southwest 341 392 35,600 1,550 Climbing Washington Center
Mon 07:02:54 AM 39.4800 -74.8764 204° Southwest 329 379 36,700 900 Climbing Washington Center
Mon 07:03:54 AM 39.4011 -74.9228 204° Southwest 318 366 37,400 700 Climbing Washington Center
Mon 07:04:54 AM 39.3158 -74.9692 203° Southwest 318 366 38,100 700 Climbing Washington Center
Mon 07:05:54 AM 39.2328 -75.0181 205° Southwest 318 366 38,800 744 Climbing Washington Center
Mon 07:06:55 AM 39.1497 -75.0644 203° Southwest 323 372 39,600 600 Climbing Washington Center
Mon 07:07:54 AM 39.0686 -75.1158 206° Southwest 329 379 40,000 202 Climbing Washington Center
Mon 07:08:54 AM 38.9856 -75.1722 208° Southwest 329 379 40,000  Level Washington Center
Mon 07:09:54 AM 38.8981 -75.2342 209° Southwest 348 400 40,000  Level Washington Center
Mon 07:10:54 AM 38.8128 -75.2958 209° Southwest 353 406 40,000  Level Washington Center
Mon 07:11:54 AM 38.7275 -75.3547 208° Southwest 353 406 40,000  Level Washington Center
Mon 07:12:54 AM 38.6422 -75.4161 209° Southwest 358 412 40,000  Level Washington Center
Mon 07:13:54 AM 38.5547 -75.4747 208° Southwest 358 412 40,000  Level Washington Center
Mon 07:14:54 AM 38.4714 -75.5333 209° Southwest 358 412 40,000  Level Washington Center
Mon 07:15:54 AM 38.3836 -75.5917 208° Southwest 358 412 40,000  Level Washington Center
Mon 07:16:54 AM 38.2961 -75.6447 205° Southwest 353 406 40,000  Level Washington Center
Mon 07:17:54 AM 38.2086 -75.7053 209° Southwest 353 406 40,000  Level Washington Center
Mon 07:18:54 AM 38.1208 -75.7633 207° Southwest 353 406 40,000  Level Washington Center
Mon 07:19:54 AM 38.0458 -75.8211 211° Southwest 353 406 40,000  Level Washington Center
Mon 07:20:54 AM 37.9456 -75.8814 205° Southwest 353 406 40,000  Level Washington Center
Mon 07:21:54 AM 37.8578 -75.9417 208° Southwest 358 412 40,000  Level Washington Center
Mon 07:22:54 AM 37.7658 -76.0122 211° Southwest 358 412 40,000  Level Washington Center
Mon 07:23:54 AM 37.6781 -76.0694 207° Southwest 358 412 40,000  Level Washington Center
Mon 07:24:54 AM 37.5881 -76.1264 207° Southwest 358 412 40,000  Level Washington Center
Mon 07:25:54 AM 37.5086 -76.1756 206° Southwest 358 412 40,000  Level Washington Center
Mon 07:26:54 AM 37.4186 -76.2350 208° Southwest 358 412 40,000  Level Washington Center
Mon 07:27:54 AM 37.3306 -76.2944 208° Southwest 358 412 40,000  Level Washington Center
Mon 07:28:54 AM 37.2425 -76.3536 208° Southwest 363 418 40,000  Level Washington Center
Mon 07:29:54 AM 37.1547 -76.4100 207° Southwest 363 418 40,000  Level Washington Center
Mon 07:30:54 AM 37.0644 -76.4692 208° Southwest 363 418 40,000  Level Washington Center
Mon 07:31:54 AM 36.9764 -76.5278 208° Southwest 363 418 40,000  Level Washington Center
Mon 07:32:54 AM 36.8906 -76.5839 208° Southwest 363 418 40,000  Level Washington Center
Mon 07:33:54 AM 36.8025 -76.6425 208° Southwest 363 418 40,000  Level Washington Center
Mon 07:34:54 AM 36.7142 -76.7008 208° Southwest 363 418 40,000  Level Washington Center
Mon 07:35:54 AM 36.6178 -76.7667 209° Southwest 363 418 40,000  Level Washington Center
Mon 07:36:54 AM 36.5378 -76.8147 206° Southwest 358 412 40,000  Level Washington Center
Mon 07:37:55 AM 36.4497 -76.8728 208° Southwest 358 412 40,000  Level Washington Center
Mon 07:38:54 AM 36.3508 -76.9356 207° Southwest 358 412 40,000  Level Washington Center
Mon 07:39:54 AM 36.2647 -76.9958 209° Southwest 358 412 40,000  Level Washington Center
Mon 07:40:54 AM 36.1742 -77.0508 206° Southwest 358 412 40,000  Level Washington Center
Mon 07:41:54 AM 36.0861 -77.1058 207° Southwest 358 412 40,000  Level Washington Center
Mon 07:42:54 AM 36.0103 -77.1558 208° Southwest 353 406 40,000  Level Washington Center
Mon 07:43:54 AM 35.9178 -77.2131 207° Southwest 359 413 40,000  Level Washington Center
Mon 07:44:55 AM 35.8314 -77.2675 207° Southwest 359 413 40,000  Level Washington Center
Mon 07:45:54 AM 35.7389 -77.3244 207° Southwest 364 419 40,000  Level Washington Center
Mon 07:46:54 AM 35.6481 -77.3839 208° Southwest 370 426 40,000  Level Washington Center
Mon 07:47:54 AM 35.5575 -77.4406 207° Southwest 370 426 40,000  Level Washington Center
Mon 07:48:54 AM 35.4669 -77.4969 207° Southwest 370 426 40,000  Level Washington Center
Mon 07:49:54 AM 35.3783 -77.5536 208° Southwest 370 426 40,000  Level Washington Center
Mon 07:50:54 AM 35.3019 -77.6306 219° Southwest 370 426 40,000  Level Washington Center
Mon 07:51:54 AM 35.2256 -77.7075 219° Southwest 363 418 40,000  Level Washington Center
Mon 07:52:54 AM 35.1492 -77.7867 220° Southwest 363 418 40,000  Level Washington Center
Mon 07:53:54 AM 35.0725 -77.8633 219° Southwest 358 412 40,000  Level Washington Center
Mon 07:54:54 AM 34.9981 -77.9400 220° Southwest 358 412 40,000  Level Washington Center
Mon 07:55:54 AM 34.9211 -78.0214 221° Southwest 363 418 40,000  Level Washington Center
Mon 07:56:54 AM 34.8444 -78.0975 219° Southwest 358 412 40,000  Level Washington Center
Mon 07:57:54 AM 34.7656 -78.1886 224° Southwest 358 412 40,000  Level Washington Center
Mon 07:58:54 AM 34.6886 -78.2644 219° Southwest 358 412 40,000  Level Washington Center
Mon 07:59:54 AM 34.6139 -78.3453 222° Southwest 358 412 40,000  Level Washington Center
Mon 08:01:08 AM 34.5272 -78.4319 219° Southwest 367 422 40,000  Level Jacksonville Center
Mon 08:02:08 AM 34.4506 -78.5064 219° Southwest 361 415 40,000  Level Jacksonville Center
Mon 08:03:08 AM 34.3742 -78.5858 221° Southwest 361 415 40,000  Level Jacksonville Center
Mon 08:04:08 AM 34.2953 -78.6625 219° Southwest 361 415 40,000  Level Jacksonville Center
Mon 08:05:08 AM 34.2208 -78.7417 221° Southwest 361 415 40,000  Level Jacksonville Center
Mon 08:06:08 AM 34.1656 -78.8394 236° Southwest 361 415 40,000  Level Jacksonville Center
Mon 08:07:08 AM 34.1103 -78.9400 236° Southwest 361 415 40,000  Level Jacksonville Center
Mon 08:08:08 AM 34.0531 -79.0403 235° Southwest 367 422 40,000  Level Jacksonville Center
Mon 08:09:08 AM 33.9975 -79.1403 236° Southwest 362 417 40,000  Level Jacksonville Center
Mon 08:10:08 AM 33.9400 -79.2431 236° Southwest 362 417 40,000  Level Jacksonville Center
Mon 08:11:08 AM 33.8844 -79.3403 235° Southwest 362 417 40,000  Level Jacksonville Center
Mon 08:12:08 AM 33.8292 -79.4475 238° Southwest 367 422 40,000 -550 Level Jacksonville Center
Mon 08:13:08 AM 33.7733 -79.5522 237° Southwest 359 413 38,900 -1,350 Descending Jacksonville Center
Mon 08:14:08 AM 33.7197 -79.6542 238° Southwest 359 413 37,300 -1,600 Descending Jacksonville Center
Mon 08:15:08 AM 33.6700 -79.7508 238° Southwest 354 407 35,700 -1,600 Descending Jacksonville Center
Mon 08:16:08 AM 33.6183 -79.8522 239° Southwest 354 407 34,100 -1,600 Descending Jacksonville Center
Mon 08:17:08 AM 33.5683 -79.9536 239° Southwest 354 407 32,500 -1,600 Descending Jacksonville Center
Mon 08:18:08 AM 33.5106 -80.0628 238° Southwest 367 422 30,900 -1,250 Descending Jacksonville Center
Mon 08:19:08 AM 33.4331 -80.1497 223° Southwest 379 436 30,000 -450 Descending Jacksonville Center
Mon 08:20:08 AM 33.3361 -80.2075 206° Southwest 379 436 30,000  Level Jacksonville Center
Mon 08:21:08 AM 33.2392 -80.2625 205° Southwest 385 443 30,000  Level Jacksonville Center
Mon 08:22:08 AM 33.1361 -80.3153 203° Southwest 406 467 30,000  Level Jacksonville Center
Mon 08:23:08 AM 33.0267 -80.3753 205° Southwest 421 484 30,000  Level Jacksonville Center
Mon 08:24:08 AM 32.9358 -80.4275 206° Southwest 403 464 30,000  Level Jacksonville Center
Mon 08:25:08 AM 32.8347 -80.4844 205° Southwest 403 464 30,000  Level Jacksonville Center
Mon 08:26:08 AM 32.7314 -80.5417 205° Southwest 403 464 30,000  Level Jacksonville Center
Mon 08:27:08 AM 32.6281 -80.5986 205° Southwest 403 464 30,000  Level Jacksonville Center
Mon 08:28:08 AM 32.5225 -80.6556 204° Southwest 408 470 30,000  Level Jacksonville Center
Mon 08:29:08 AM 32.4192 -80.7122 205° Southwest 413 475 30,000  Level Jacksonville Center
Mon 08:30:08 AM 32.3094 -80.7736 205° Southwest 408 470 30,000  Level Jacksonville Center
Mon 08:31:08 AM 32.2042 -80.8328 205° Southwest 408 470 30,000 -350 Level Jacksonville Center
Mon 08:32:08 AM 32.1089 -80.8814 203° Southwest 408 470 29,300 -1,400 Descending Jacksonville Center
Mon 08:33:08 AM 31.9950 -80.9450 205° Southwest 413 475 27,200 -1,900 Descending Jacksonville Center
Mon 08:34:08 AM 31.8894 -80.9986 203° Southwest 413 475 25,500 -1,600 Descending Jacksonville Center
Mon 08:35:08 AM 31.7981 -81.0469 204° Southwest 413 475 24,000 -750 Descending Jacksonville Center
Mon 08:36:08 AM 31.6883 -81.1053 204° Southwest 408 470 24,000  Level Jacksonville Center
Mon 08:37:08 AM 31.5950 -81.1558 205° Southwest 408 470 24,000 -1,250 Level Jacksonville Center
Mon 08:38:08 AM 31.4831 -81.2164 205° Southwest 408 470 21,500 -2,500 Descending Jacksonville Center
Mon 08:39:08 AM 31.3817 -81.2694 204° Southwest 402 463 19,000 -2,593 Descending Jacksonville Center
Mon 08:40:06 AM 31.2883 -81.3222 206° Southwest 374 430 16,400 -2,580 Descending Jacksonville Center
Mon 08:40:48 AM 31.2261 -81.3522 202° Southwest 354 407 14,700 -2,226 Descending Jacksonville Center
Mon 08:41:08 AM 31.1992 -81.3697 209° Southwest 364 419 14,100 -2,459 Descending Jacksonville Center
Mon 08:41:49 AM 31.1494 -81.4022 209° Southwest 304 350 12,200 -2,500 Descending Jacksonville Center
Mon 08:42:08 AM 31.1244 -81.4219 214° Southwest 322 371 11,600 -2,164 Descending Jacksonville Center
Mon 08:42:50 AM 31.0769 -81.4517 208° Southwest 299 344 10,000 -1,600 Descending Jacksonville Center
Mon 08:43:08 AM 31.0497 -81.4667 205° Southwest 309 356 10,000 -98 Level Jacksonville Center
Mon 08:43:51 AM 30.9958 -81.4967 206° Southwest 296 341 9,900 -100 Descending Jacksonville Center
Mon 08:44:08 AM 30.9772 -81.5089 209° Southwest 302 348 9,900 -1,100 Level Jacksonville Center
Mon 08:44:51 AM 30.9233 -81.5414 207° Southwest 289 333 8,800 -1,300 Descending Jacksonville Center
Mon 08:45:08 AM 30.9067 -81.5536 212° Southwest 297 342 8,600 -1,279 Descending Jacksonville Center
Mon 08:45:52 AM 30.8528 -81.5786 202° Southwest 279 321 7,500 -1,300 Descending Jacksonville Center
Mon 08:46:08 AM 30.8361 -81.5908 212° Southwest 297 342 7,300 -1,279 Descending Jacksonville Center
Mon 08:46:53 AM 30.7822 -81.6206 205° Southwest 284 327 6,200 -1,300 Descending Jacksonville Center
Mon 08:47:08 AM 30.7633 -81.6306 204° Southwest 292 336 6,000 -1,180 Descending Jacksonville Center
Mon 08:47:54 AM 30.7136 -81.6650 211° Southwest 282 325 5,000 -1,178 Descending Jacksonville Center
Mon 08:48:55 AM 30.6453 -81.7069 208° Southwest 277 319 3,900 -545 Descending Jacksonville Center
Mon 08:49:55 AM 30.5767 -81.7586 213° Southwest 275 316 3,900 -99 Level Jacksonville Center
Mon 08:50:56 AM 30.5208 -81.8147 221° Southwest 278 320 3,700 -934 Descending Jacksonville Center
Mon 08:51:57 AM 30.5006 -81.8969 254° West 267 307 2,000 -844 Descending Jacksonville Center
Mon 08:53:04 AM 30.4525 -81.8878 171° South 184 212 1,900 -47 Descending Jacksonville Center
Mon 08:54:04 AM 30.4522 -81.8372 90° East 131 151 1,900 -99 Level Jacksonville Center
Mon 08:55:05 AM 30.4644 -81.7983 70° East 109 125 1,700 -393 Descending Jacksonville Center
Mon 08:56:06 AM 30.4744 -81.7669 70° East 106 122 1,100 -590 Descending Jacksonville Center
Mon 08:57:07 AM 30.4847 -81.7308 72° East 114 131 500 -590 Descending Jacksonville Center
Mon 08:59:00 AM 30.4833 -81.6833 76° East  Level FlightAware Approximate
Mon 09:06:00 AM 30.4941 -81.6879 76° East  Level Estimated

Login

Don't have an account? Register now (free) for customized features, flight alerts, and more!